sensor_id;sensor_type;location;lat;lon;timestamp;temperature;humidity
75170;SHT31;63749;49.186;9.222;2023-02-08T00:02:24;-3.45;83.14
75170;SHT31;63749;49.186;9.222;2023-02-08T00:04:49;-3.44;83.10
75170;SHT31;63749;49.186;9.222;2023-02-08T00:07:15;-3.62;83.85
75170;SHT31;63749;49.186;9.222;2023-02-08T00:09:40;-3.73;84.15
75170;SHT31;63749;49.186;9.222;2023-02-08T00:12:05;-3.80;84.59
75170;SHT31;63749;49.186;9.222;2023-02-08T00:14:31;-3.75;84.65
75170;SHT31;63749;49.186;9.222;2023-02-08T00:16:56;-3.85;84.80
75170;SHT31;63749;49.186;9.222;2023-02-08T00:19:21;-3.80;84.74
75170;SHT31;63749;49.186;9.222;2023-02-08T00:21:47;-3.78;84.49
75170;SHT31;63749;49.186;9.222;2023-02-08T00:24:12;-3.78;84.51
75170;SHT31;63749;49.186;9.222;2023-02-08T00:26:37;-3.83;84.62
75170;SHT31;63749;49.186;9.222;2023-02-08T00:29:03;-3.79;84.64
75170;SHT31;63749;49.186;9.222;2023-02-08T00:31:28;-3.86;84.86
75170;SHT31;63749;49.186;9.222;2023-02-08T00:33:54;-3.87;85.22
75170;SHT31;63749;49.186;9.222;2023-02-08T00:36:19;-3.78;84.73
75170;SHT31;63749;49.186;9.222;2023-02-08T00:38:44;-3.76;84.65
75170;SHT31;63749;49.186;9.222;2023-02-08T00:41:10;-3.70;84.53
75170;SHT31;63749;49.186;9.222;2023-02-08T00:43:35;-3.73;84.39
75170;SHT31;63749;49.186;9.222;2023-02-08T00:46:00;-3.75;84.40
75170;SHT31;63749;49.186;9.222;2023-02-08T00:48:26;-3.73;84.43
75170;SHT31;63749;49.186;9.222;2023-02-08T00:51:18;-3.61;84.22
75170;SHT31;63749;49.186;9.222;2023-02-08T00:53:44;-3.63;84.18
75170;SHT31;63749;49.186;9.222;2023-02-08T00:56:11;-3.70;84.49
75170;SHT31;63749;49.186;9.222;2023-02-08T00:58:37;-3.75;84.68
75170;SHT31;63749;49.186;9.222;2023-02-08T01:01:04;-3.75;84.71
75170;SHT31;63749;49.186;9.222;2023-02-08T01:03:32;-3.85;84.91
75170;SHT31;63749;49.186;9.222;2023-02-08T01:06:02;-3.85;85.00
75170;SHT31;63749;49.186;9.222;2023-02-08T01:08:28;-3.86;85.18
75170;SHT31;63749;49.186;9.222;2023-02-08T01:11:04;-3.86;85.34
75170;SHT31;63749;49.186;9.222;2023-02-08T01:13:30;-3.83;85.31
75170;SHT31;63749;49.186;9.222;2023-02-08T01:16:04;-3.76;85.01
75170;SHT31;63749;49.186;9.222;2023-02-08T01:18:29;-3.79;85.11
75170;SHT31;63749;49.186;9.222;2023-02-08T01:21:05;-3.82;85.26
75170;SHT31;63749;49.186;9.222;2023-02-08T01:23:31;-3.80;85.15
75170;SHT31;63749;49.186;9.222;2023-02-08T01:25:56;-3.78;85.23
75170;SHT31;63749;49.186;9.222;2023-02-08T01:28:21;-3.76;85.06
75170;SHT31;63749;49.186;9.222;2023-02-08T01:30:47;-3.73;84.93
75170;SHT31;63749;49.186;9.222;2023-02-08T01:33:12;-3.83;85.07
75170;SHT31;63749;49.186;9.222;2023-02-08T01:35:37;-3.85;85.41
75170;SHT31;63749;49.186;9.222;2023-02-08T01:38:03;-3.83;85.35
75170;SHT31;63749;49.186;9.222;2023-02-08T01:40:28;-3.82;85.30
75170;SHT31;63749;49.186;9.222;2023-02-08T01:42:53;-3.85;85.38
75170;SHT31;63749;49.186;9.222;2023-02-08T01:45:27;-3.85;85.41
75170;SHT31;63749;49.186;9.222;2023-02-08T01:48:19;-3.96;85.98
75170;SHT31;63749;49.186;9.222;2023-02-08T01:53:44;-3.90;85.67
75170;SHT31;63749;49.186;9.222;2023-02-08T01:56:21;-3.89;84.97
75170;SHT31;63749;49.186;9.222;2023-02-08T01:58:50;-3.83;84.80
75170;SHT31;63749;49.186;9.222;2023-02-08T02:01:16;-3.92;85.19
75170;SHT31;63749;49.186;9.222;2023-02-08T02:03:42;-3.97;85.41
75170;SHT31;63749;49.186;9.222;2023-02-08T02:06:10;-3.94;85.26
75170;SHT31;63749;49.186;9.222;2023-02-08T02:08:39;-3.89;85.19
75170;SHT31;63749;49.186;9.222;2023-02-08T02:11:07;-3.90;85.26
75170;SHT31;63749;49.186;9.222;2023-02-08T02:13:33;-4.00;85.09
75170;SHT31;63749;49.186;9.222;2023-02-08T02:16:01;-3.93;85.44
75170;SHT31;63749;49.186;9.222;2023-02-08T02:18:28;-3.80;84.12
75170;SHT31;63749;49.186;9.222;2023-02-08T02:27:18;-3.72;84.17
75170;SHT31;63749;49.186;9.222;2023-02-08T02:32:22;-3.78;83.98
75170;SHT31;63749;49.186;9.222;2023-02-08T02:35:03;-3.78;83.76
75170;SHT31;63749;49.186;9.222;2023-02-08T02:40:44;-3.62;82.77
75170;SHT31;63749;49.186;9.222;2023-02-08T02:43:27;-3.55;83.04
75170;SHT31;63749;49.186;9.222;2023-02-08T02:46:28;-3.48;82.46
75170;SHT31;63749;49.186;9.222;2023-02-08T02:49:07;-3.52;82.49
75170;SHT31;63749;49.186;9.222;2023-02-08T02:51:47;-3.56;82.28
75170;SHT31;63749;49.186;9.222;2023-02-08T02:54:17;-3.58;82.22
75170;SHT31;63749;49.186;9.222;2023-02-08T02:56:46;-3.61;82.53
75170;SHT31;63749;49.186;9.222;2023-02-08T02:59:14;-3.61;82.35
75170;SHT31;63749;49.186;9.222;2023-02-08T03:01:41;-3.58;82.34
75170;SHT31;63749;49.186;9.222;2023-02-08T03:09:57;-3.56;82.21
75170;SHT31;63749;49.186;9.222;2023-02-08T03:23:40;-3.73;82.33
75170;SHT31;63749;49.186;9.222;2023-02-08T03:26:15;-3.73;82.10
75170;SHT31;63749;49.186;9.222;2023-02-08T03:28:56;-3.76;82.11
75170;SHT31;63749;49.186;9.222;2023-02-08T03:31:38;-3.72;82.17
75170;SHT31;63749;49.186;9.222;2023-02-08T03:34:10;-3.66;81.93
75170;SHT31;63749;49.186;9.222;2023-02-08T03:36:49;-3.63;81.59
75170;SHT31;63749;49.186;9.222;2023-02-08T03:39:20;-3.73;81.94
75170;SHT31;63749;49.186;9.222;2023-02-08T03:41:51;-3.68;81.80
75170;SHT31;63749;49.186;9.222;2023-02-08T03:44:22;-3.73;81.95
75170;SHT31;63749;49.186;9.222;2023-02-08T03:47:00;-3.70;81.57
75170;SHT31;63749;49.186;9.222;2023-02-08T03:49:30;-3.73;81.63
75170;SHT31;63749;49.186;9.222;2023-02-08T03:52:00;-3.70;81.68
75170;SHT31;63749;49.186;9.222;2023-02-08T03:54:28;-3.66;81.37
75170;SHT31;63749;49.186;9.222;2023-02-08T03:57:17;-3.61;81.06
75170;SHT31;63749;49.186;9.222;2023-02-08T03:59:49;-3.58;80.83
75170;SHT31;63749;49.186;9.222;2023-02-08T04:02:19;-3.61;81.05
75170;SHT31;63749;49.186;9.222;2023-02-08T04:04:47;-3.61;81.01
75170;SHT31;63749;49.186;9.222;2023-02-08T04:07:15;-3.55;80.32
75170;SHT31;63749;49.186;9.222;2023-02-08T04:09:41;-3.59;80.66
75170;SHT31;63749;49.186;9.222;2023-02-08T04:12:06;-3.59;80.53
75170;SHT31;63749;49.186;9.222;2023-02-08T04:14:32;-3.48;79.66
75170;SHT31;63749;49.186;9.222;2023-02-08T04:16:57;-3.47;79.33
75170;SHT31;63749;49.186;9.222;2023-02-08T04:19:22;-3.48;79.60
75170;SHT31;63749;49.186;9.222;2023-02-08T04:21:48;-3.51;79.66
75170;SHT31;63749;49.186;9.222;2023-02-08T04:24:13;-3.52;79.72
75170;SHT31;63749;49.186;9.222;2023-02-08T04:26:46;-3.51;79.79
75170;SHT31;63749;49.186;9.222;2023-02-08T04:29:11;-3.54;79.96
75170;SHT31;63749;49.186;9.222;2023-02-08T04:31:38;-3.58;79.87
75170;SHT31;63749;49.186;9.222;2023-02-08T04:34:03;-3.54;80.04
75170;SHT31;63749;49.186;9.222;2023-02-08T04:36:29;-3.59;80.28
75170;SHT31;63749;49.186;9.222;2023-02-08T04:38:56;-3.56;80.07
75170;SHT31;63749;49.186;9.222;2023-02-08T04:41:21;-3.61;80.04
75170;SHT31;63749;49.186;9.222;2023-02-08T04:43:47;-3.72;80.34
75170;SHT31;63749;49.186;9.222;2023-02-08T04:46:12;-3.79;80.50
75170;SHT31;63749;49.186;9.222;2023-02-08T04:48:37;-3.78;80.51
75170;SHT31;63749;49.186;9.222;2023-02-08T04:51:03;-3.79;80.36
75170;SHT31;63749;49.186;9.222;2023-02-08T04:53:28;-3.80;80.51
75170;SHT31;63749;49.186;9.222;2023-02-08T04:55:54;-3.73;80.13
75170;SHT31;63749;49.186;9.222;2023-02-08T04:58:19;-3.78;80.21
75170;SHT31;63749;49.186;9.222;2023-02-08T05:00:45;-3.75;80.37
75170;SHT31;63749;49.186;9.222;2023-02-08T05:03:11;-3.79;80.25
75170;SHT31;63749;49.186;9.222;2023-02-08T05:05:40;-3.80;80.14
75170;SHT31;63749;49.186;9.222;2023-02-08T05:08:06;-3.79;80.13
75170;SHT31;63749;49.186;9.222;2023-02-08T05:10:32;-3.78;79.96
75170;SHT31;63749;49.186;9.222;2023-02-08T05:12:57;-3.76;79.88
75170;SHT31;63749;49.186;9.222;2023-02-08T05:15:22;-3.85;80.25
75170;SHT31;63749;49.186;9.222;2023-02-08T05:17:48;-3.86;80.88
75170;SHT31;63749;49.186;9.222;2023-02-08T05:20:13;-3.87;80.18
75170;SHT31;63749;49.186;9.222;2023-02-08T05:22:39;-3.92;80.40
75170;SHT31;63749;49.186;9.222;2023-02-08T05:25:05;-3.93;80.49
75170;SHT31;63749;49.186;9.222;2023-02-08T05:27:35;-3.90;80.51
75170;SHT31;63749;49.186;9.222;2023-02-08T05:30:03;-3.86;80.03
75170;SHT31;63749;49.186;9.222;2023-02-08T05:32:28;-3.86;80.11
75170;SHT31;63749;49.186;9.222;2023-02-08T05:34:54;-3.85;79.85
75170;SHT31;63749;49.186;9.222;2023-02-08T05:37:19;-3.83;79.72
75170;SHT31;63749;49.186;9.222;2023-02-08T05:39:44;-3.80;79.69
75170;SHT31;63749;49.186;9.222;2023-02-08T05:42:10;-3.85;79.98
75170;SHT31;63749;49.186;9.222;2023-02-08T05:44:35;-3.82;79.76
75170;SHT31;63749;49.186;9.222;2023-02-08T05:47:01;-3.80;79.63
75170;SHT31;63749;49.186;9.222;2023-02-08T05:49:27;-3.87;80.16
75170;SHT31;63749;49.186;9.222;2023-02-08T05:51:52;-3.87;80.14
75170;SHT31;63749;49.186;9.222;2023-02-08T05:54:17;-3.83;79.96
75170;SHT31;63749;49.186;9.222;2023-02-08T05:56:43;-3.80;79.88
75170;SHT31;63749;49.186;9.222;2023-02-08T05:59:09;-3.78;79.97
75170;SHT31;63749;49.186;9.222;2023-02-08T06:01:34;-3.73;79.55
75170;SHT31;63749;49.186;9.222;2023-02-08T06:04:00;-3.69;79.47
75170;SHT31;63749;49.186;9.222;2023-02-08T06:06:25;-3.68;79.33
75170;SHT31;63749;49.186;9.222;2023-02-08T06:08:51;-3.73;79.26
75170;SHT31;63749;49.186;9.222;2023-02-08T06:11:16;-3.75;79.56
75170;SHT31;63749;49.186;9.222;2023-02-08T06:13:43;-3.76;79.62
75170;SHT31;63749;49.186;9.222;2023-02-08T06:16:10;-3.66;79.84
75170;SHT31;63749;49.186;9.222;2023-02-08T06:18:35;-3.68;80.70
75170;SHT31;63749;49.186;9.222;2023-02-08T06:21:01;-3.73;79.58
75170;SHT31;63749;49.186;9.222;2023-02-08T06:23:26;-3.79;79.96
75170;SHT31;63749;49.186;9.222;2023-02-08T06:25:52;-3.82;79.85
75170;SHT31;63749;49.186;9.222;2023-02-08T06:28:17;-3.78;79.97
75170;SHT31;63749;49.186;9.222;2023-02-08T06:30:44;-3.76;79.75
75170;SHT31;63749;49.186;9.222;2023-02-08T06:33:09;-3.79;80.96
75170;SHT31;63749;49.186;9.222;2023-02-08T06:35:34;-3.75;80.16
75170;SHT31;63749;49.186;9.222;2023-02-08T06:38:00;-3.85;79.65
75170;SHT31;63749;49.186;9.222;2023-02-08T06:40:25;-3.80;79.80
75170;SHT31;63749;49.186;9.222;2023-02-08T06:42:50;-3.85;79.52
75170;SHT31;63749;49.186;9.222;2023-02-08T06:45:16;-3.78;82.51
75170;SHT31;63749;49.186;9.222;2023-02-08T06:47:42;-3.78;79.42
75170;SHT31;63749;49.186;9.222;2023-02-08T06:50:09;-3.79;79.43
75170;SHT31;63749;49.186;9.222;2023-02-08T06:52:35;-3.78;79.41
75170;SHT31;63749;49.186;9.222;2023-02-08T06:55:00;-3.76;79.27
75170;SHT31;63749;49.186;9.222;2023-02-08T06:57:25;-3.72;78.86
75170;SHT31;63749;49.186;9.222;2023-02-08T06:59:51;-3.70;78.79
75170;SHT31;63749;49.186;9.222;2023-02-08T07:02:18;-3.69;78.35
75170;SHT31;63749;49.186;9.222;2023-02-08T07:04:44;-3.62;78.99
75170;SHT31;63749;49.186;9.222;2023-02-08T07:07:13;-3.11;82.83
75170;SHT31;63749;49.186;9.222;2023-02-08T07:09:39;-2.42;80.83
75170;SHT31;63749;49.186;9.222;2023-02-08T07:12:07;-2.45;79.60
75170;SHT31;63749;49.186;9.222;2023-02-08T07:14:35;-1.46;84.65
75170;SHT31;63749;49.186;9.222;2023-02-08T07:17:01;-1.94;74.34
75170;SHT31;63749;49.186;9.222;2023-02-08T07:19:27;-2.17;74.08
75170;SHT31;63749;49.186;9.222;2023-02-08T07:21:53;-2.28;76.27
75170;SHT31;63749;49.186;9.222;2023-02-08T07:24:19;-2.49;74.53
75170;SHT31;63749;49.186;9.222;2023-02-08T07:26:44;-3.00;75.04
75170;SHT31;63749;49.186;9.222;2023-02-08T07:29:10;-3.20;76.16
75170;SHT31;63749;49.186;9.222;2023-02-08T07:31:35;-3.30;76.18
75170;SHT31;63749;49.186;9.222;2023-02-08T07:34:01;-3.35;76.57
75170;SHT31;63749;49.186;9.222;2023-02-08T07:36:26;-3.37;77.05
75170;SHT31;63749;49.186;9.222;2023-02-08T07:38:52;-3.37;76.61
75170;SHT31;63749;49.186;9.222;2023-02-08T07:41:17;-3.30;76.80
75170;SHT31;63749;49.186;9.222;2023-02-08T07:43:42;-3.30;76.48
75170;SHT31;63749;49.186;9.222;2023-02-08T07:46:19;-3.20;76.77
75170;SHT31;63749;49.186;9.222;2023-02-08T07:48:45;-3.18;76.25
75170;SHT31;63749;49.186;9.222;2023-02-08T07:51:11;-3.11;75.77
75170;SHT31;63749;49.186;9.222;2023-02-08T07:53:37;-3.04;75.55
75170;SHT31;63749;49.186;9.222;2023-02-08T07:56:02;-3.04;75.36
75170;SHT31;63749;49.186;9.222;2023-02-08T07:58:28;-2.99;74.88
75170;SHT31;63749;49.186;9.222;2023-02-08T08:00:53;-2.93;74.81
75170;SHT31;63749;49.186;9.222;2023-02-08T08:03:19;-2.83;74.20
75170;SHT31;63749;49.186;9.222;2023-02-08T08:05:44;-2.66;73.65
75170;SHT31;63749;49.186;9.222;2023-02-08T08:08:11;-2.63;73.15
75170;SHT31;63749;49.186;9.222;2023-02-08T08:10:37;-2.51;73.52
75170;SHT31;63749;49.186;9.222;2023-02-08T08:13:03;-2.41;72.66
75170;SHT31;63749;49.186;9.222;2023-02-08T08:15:28;-2.37;72.06
75170;SHT31;63749;49.186;9.222;2023-02-08T08:17:54;-2.28;72.56
75170;SHT31;63749;49.186;9.222;2023-02-08T08:20:19;-2.24;71.87
75170;SHT31;63749;49.186;9.222;2023-02-08T08:22:45;-2.21;71.27
75170;SHT31;63749;49.186;9.222;2023-02-08T08:25:10;-2.11;71.54
75170;SHT31;63749;49.186;9.222;2023-02-08T08:27:36;-2.01;70.61
75170;SHT31;63749;49.186;9.222;2023-02-08T08:30:04;-1.93;70.07
75170;SHT31;63749;49.186;9.222;2023-02-08T08:32:30;-1.86;69.81
75170;SHT31;63749;49.186;9.222;2023-02-08T08:34:55;-1.73;69.61
75170;SHT31;63749;49.186;9.222;2023-02-08T08:37:20;-1.63;69.12
75170;SHT31;63749;49.186;9.222;2023-02-08T08:39:46;-1.55;69.37
75170;SHT31;63749;49.186;9.222;2023-02-08T08:42:11;-1.41;69.22
75170;SHT31;63749;49.186;9.222;2023-02-08T08:44:36;-1.31;69.49
75170;SHT31;63749;49.186;9.222;2023-02-08T08:47:02;-1.28;68.87
75170;SHT31;63749;49.186;9.222;2023-02-08T08:49:27;-1.24;68.61
75170;SHT31;63749;49.186;9.222;2023-02-08T08:51:53;-1.13;68.25
75170;SHT31;63749;49.186;9.222;2023-02-08T08:54:20;-1.02;68.47
75170;SHT31;63749;49.186;9.222;2023-02-08T08:56:45;-1.01;67.56
75170;SHT31;63749;49.186;9.222;2023-02-08T08:59:11;-0.97;67.34
75170;SHT31;63749;49.186;9.222;2023-02-08T09:01:36;-0.88;66.99
75170;SHT31;63749;49.186;9.222;2023-02-08T09:04:03;-0.83;66.61
75170;SHT31;63749;49.186;9.222;2023-02-08T09:06:28;-0.73;66.86
75170;SHT31;63749;49.186;9.222;2023-02-08T09:08:54;-0.69;66.74
75170;SHT31;63749;49.186;9.222;2023-02-08T09:11:19;-0.52;66.86
75170;SHT31;63749;49.186;9.222;2023-02-08T09:13:45;-0.40;67.34
75170;SHT31;63749;49.186;9.222;2023-02-08T09:16:13;-0.30;65.82
75170;SHT31;63749;49.186;9.222;2023-02-08T09:18:39;-0.36;64.80
75170;SHT31;63749;49.186;9.222;2023-02-08T09:21:10;-0.25;64.93
75170;SHT31;63749;49.186;9.222;2023-02-08T09:23:36;-0.15;65.28
75170;SHT31;63749;49.186;9.222;2023-02-08T09:26:06;-0.05;64.01
75170;SHT31;63749;49.186;9.222;2023-02-08T09:28:32;0.03;63.50
75170;SHT31;63749;49.186;9.222;2023-02-08T09:30:58;0.22;62.96
75170;SHT31;63749;49.186;9.222;2023-02-08T09:33:26;0.28;62.17
75170;SHT31;63749;49.186;9.222;2023-02-08T09:35:51;0.33;61.94
75170;SHT31;63749;49.186;9.222;2023-02-08T09:38:16;0.45;61.78
75170;SHT31;63749;49.186;9.222;2023-02-08T09:43:51;0.76;60.94
75170;SHT31;63749;49.186;9.222;2023-02-08T09:46:23;0.88;61.13
75170;SHT31;63749;49.186;9.222;2023-02-08T09:48:51;0.98;60.38
75170;SHT31;63749;49.186;9.222;2023-02-08T09:51:34;1.09;59.61
75170;SHT31;63749;49.186;9.222;2023-02-08T09:54:16;1.05;59.83
75170;SHT31;63749;49.186;9.222;2023-02-08T09:56:43;1.05;59.27
75170;SHT31;63749;49.186;9.222;2023-02-08T09:59:15;1.31;58.52
75170;SHT31;63749;49.186;9.222;2023-02-08T10:01:41;1.28;58.23
75170;SHT31;63749;49.186;9.222;2023-02-08T10:07:10;1.53;59.44
75170;SHT31;63749;49.186;9.222;2023-02-08T10:09:35;1.62;58.25
75170;SHT31;63749;49.186;9.222;2023-02-08T10:20:49;1.87;55.45
75170;SHT31;63749;49.186;9.222;2023-02-08T10:26:16;2.20;56.59
75170;SHT31;63749;49.186;9.222;2023-02-08T10:36:54;2.65;52.58
75170;SHT31;63749;49.186;9.222;2023-02-08T10:39:31;2.75;53.18
75170;SHT31;63749;49.186;9.222;2023-02-08T10:41:58;2.79;51.35
75170;SHT31;63749;49.186;9.222;2023-02-08T10:44:33;2.83;50.64
75170;SHT31;63749;49.186;9.222;2023-02-08T10:47:13;3.03;49.73
75170;SHT31;63749;49.186;9.222;2023-02-08T10:50:05;3.14;48.73
75170;SHT31;63749;49.186;9.222;2023-02-08T10:52:33;3.24;49.89
75170;SHT31;63749;49.186;9.222;2023-02-08T10:54:58;3.26;47.37
75170;SHT31;63749;49.186;9.222;2023-02-08T10:57:29;3.31;48.83
75170;SHT31;63749;49.186;9.222;2023-02-08T11:00:02;3.45;48.59
75170;SHT31;63749;49.186;9.222;2023-02-08T11:02:33;3.59;48.45
75170;SHT31;63749;49.186;9.222;2023-02-08T11:05:08;3.72;48.34
75170;SHT31;63749;49.186;9.222;2023-02-08T11:07:34;3.76;46.59
75170;SHT31;63749;49.186;9.222;2023-02-08T11:10:23;3.58;45.91
75170;SHT31;63749;49.186;9.222;2023-02-08T11:13:16;3.74;49.07
75170;SHT31;63749;49.186;9.222;2023-02-08T11:20:49;4.03;46.42
75170;SHT31;63749;49.186;9.222;2023-02-08T11:23:32;4.10;47.02
75170;SHT31;63749;49.186;9.222;2023-02-08T11:26:36;4.14;47.64
75170;SHT31;63749;49.186;9.222;2023-02-08T11:29:11;4.13;46.78
75170;SHT31;63749;49.186;9.222;2023-02-08T11:31:37;4.33;47.78
75170;SHT31;63749;49.186;9.222;2023-02-08T11:34:06;4.37;46.39
75170;SHT31;63749;49.186;9.222;2023-02-08T11:36:34;4.14;45.46
75170;SHT31;63749;49.186;9.222;2023-02-08T11:39:03;4.32;46.92
75170;SHT31;63749;49.186;9.222;2023-02-08T11:41:46;4.34;46.58
75170;SHT31;63749;49.186;9.222;2023-02-08T11:46:53;4.47;47.02
75170;SHT31;63749;49.186;9.222;2023-02-08T11:49:23;4.46;47.72
75170;SHT31;63749;49.186;9.222;2023-02-08T11:51:49;4.23;45.24
75170;SHT31;63749;49.186;9.222;2023-02-08T11:54:34;4.33;46.54
75170;SHT31;63749;49.186;9.222;2023-02-08T11:57:10;4.50;46.35
75170;SHT31;63749;49.186;9.222;2023-02-08T11:59:36;4.69;46.59
75170;SHT31;63749;49.186;9.222;2023-02-08T12:02:38;4.60;45.65
75170;SHT31;63749;49.186;9.222;2023-02-08T12:05:09;4.61;45.56
75170;SHT31;63749;49.186;9.222;2023-02-08T12:18:36;4.53;49.51
75170;SHT31;63749;49.186;9.222;2023-02-08T12:21:09;4.55;48.25
75170;SHT31;63749;49.186;9.222;2023-02-08T12:23:54;4.61;47.80
75170;SHT31;63749;49.186;9.222;2023-02-08T12:29:20;4.72;48.21
75170;SHT31;63749;49.186;9.222;2023-02-08T12:32:02;4.61;47.04
75170;SHT31;63749;49.186;9.222;2023-02-08T12:37:15;4.85;47.64
75170;SHT31;63749;49.186;9.222;2023-02-08T12:49:40;4.92;46.51
75170;SHT31;63749;49.186;9.222;2023-02-08T12:52:02;4.96;45.86
75170;SHT31;63749;49.186;9.222;2023-02-08T12:54:36;4.93;46.12
75170;SHT31;63749;49.186;9.222;2023-02-08T12:57:04;5.02;47.50
75170;SHT31;63749;49.186;9.222;2023-02-08T12:59:40;5.13;46.57
75170;SHT31;63749;49.186;9.222;2023-02-08T13:02:28;5.29;46.67
75170;SHT31;63749;49.186;9.222;2023-02-08T13:04:58;5.33;46.73
75170;SHT31;63749;49.186;9.222;2023-02-08T13:07:41;5.35;46.04
75170;SHT31;63749;49.186;9.222;2023-02-08T13:10:20;5.40;46.19
75170;SHT31;63749;49.186;9.222;2023-02-08T13:12:53;5.39;45.94
75170;SHT31;63749;49.186;9.222;2023-02-08T13:15:23;5.29;46.02
75170;SHT31;63749;49.186;9.222;2023-02-08T13:17:57;5.46;46.03
75170;SHT31;63749;49.186;9.222;2023-02-08T13:20:27;5.39;45.36
75170;SHT31;63749;49.186;9.222;2023-02-08T13:23:00;5.43;45.50
75170;SHT31;63749;49.186;9.222;2023-02-08T13:25:33;5.56;45.84
75170;SHT31;63749;49.186;9.222;2023-02-08T13:28:01;5.56;45.94
75170;SHT31;63749;49.186;9.222;2023-02-08T13:30:27;5.35;44.80
75170;SHT31;63749;49.186;9.222;2023-02-08T13:32:53;6.08;43.82
75170;SHT31;63749;49.186;9.222;2023-02-08T13:35:28;7.26;40.60
75170;SHT31;63749;49.186;9.222;2023-02-08T13:38:01;7.69;38.95
75170;SHT31;63749;49.186;9.222;2023-02-08T13:40:29;8.00;37.08
75170;SHT31;63749;49.186;9.222;2023-02-08T13:43:15;8.86;36.90
75170;SHT31;63749;49.186;9.222;2023-02-08T13:45:45;9.09;35.35
75170;SHT31;63749;49.186;9.222;2023-02-08T13:48:16;9.72;33.54
75170;SHT31;63749;49.186;9.222;2023-02-08T13:50:50;9.62;34.23
75170;SHT31;63749;49.186;9.222;2023-02-08T13:53:18;10.63;33.86
75170;SHT31;63749;49.186;9.222;2023-02-08T13:56:07;10.77;32.55
75170;SHT31;63749;49.186;9.222;2023-02-08T13:58:56;10.91;31.72
75170;SHT31;63749;49.186;9.222;2023-02-08T14:01:22;10.81;31.90
75170;SHT31;63749;49.186;9.222;2023-02-08T14:06:35;12.31;30.23
75170;SHT31;63749;49.186;9.222;2023-02-08T14:09:23;12.27;30.12
75170;SHT31;63749;49.186;9.222;2023-02-08T14:17:18;10.63;31.63
75170;SHT31;63749;49.186;9.222;2023-02-08T14:20:01;10.63;31.51
75170;SHT31;63749;49.186;9.222;2023-02-08T14:22:33;10.71;31.49
75170;SHT31;63749;49.186;9.222;2023-02-08T14:27:39;12.17;30.88
75170;SHT31;63749;49.186;9.222;2023-02-08T14:30:19;12.35;29.39
75170;SHT31;63749;49.186;9.222;2023-02-08T14:32:47;12.96;28.79
75170;SHT31;63749;49.186;9.222;2023-02-08T14:37:39;12.53;28.70
75170;SHT31;63749;49.186;9.222;2023-02-08T14:45:42;12.66;29.13
75170;SHT31;63749;49.186;9.222;2023-02-08T14:48:40;12.55;28.94
75170;SHT31;63749;49.186;9.222;2023-02-08T14:53:59;12.16;28.11
75170;SHT31;63749;49.186;9.222;2023-02-08T14:56:48;12.44;27.93
75170;SHT31;63749;49.186;9.222;2023-02-08T14:59:18;12.32;28.33
75170;SHT31;63749;49.186;9.222;2023-02-08T15:01:47;12.70;28.14
75170;SHT31;63749;49.186;9.222;2023-02-08T15:04:14;11.94;29.09
75170;SHT31;63749;49.186;9.222;2023-02-08T15:09:22;11.98;30.21
75170;SHT31;63749;49.186;9.222;2023-02-08T15:12:24;12.18;30.31
75170;SHT31;63749;49.186;9.222;2023-02-08T15:14:53;12.42;28.82
75170;SHT31;63749;49.186;9.222;2023-02-08T15:17:27;12.82;31.39
75170;SHT31;63749;49.186;9.222;2023-02-08T15:19:54;11.70;29.49
75170;SHT31;63749;49.186;9.222;2023-02-08T15:24:53;11.80;30.16
75170;SHT31;63749;49.186;9.222;2023-02-08T15:27:30;11.90;29.72
75170;SHT31;63749;49.186;9.222;2023-02-08T15:29:56;10.78;30.58
75170;SHT31;63749;49.186;9.222;2023-02-08T15:32:23;9.58;32.69
75170;SHT31;63749;49.186;9.222;2023-02-08T15:35:01;8.23;35.94
75170;SHT31;63749;49.186;9.222;2023-02-08T15:37:32;7.31;37.97
75170;SHT31;63749;49.186;9.222;2023-02-08T15:40:00;6.74;39.81
75170;SHT31;63749;49.186;9.222;2023-02-08T15:42:28;5.91;41.59
75170;SHT31;63749;49.186;9.222;2023-02-08T15:44:55;5.42;44.44
75170;SHT31;63749;49.186;9.222;2023-02-08T15:47:31;5.13;43.65
75170;SHT31;63749;49.186;9.222;2023-02-08T15:49:57;4.67;45.60
75170;SHT31;63749;49.186;9.222;2023-02-08T15:52:27;4.55;45.04
75170;SHT31;63749;49.186;9.222;2023-02-08T15:54:53;4.75;54.42
75170;SHT31;63749;49.186;9.222;2023-02-08T15:57:35;4.40;48.25
75170;SHT31;63749;49.186;9.222;2023-02-08T16:00:20;4.13;47.89
75170;SHT31;63749;49.186;9.222;2023-02-08T16:03:00;3.89;46.78
75170;SHT31;63749;49.186;9.222;2023-02-08T16:05:28;3.75;47.42
75170;SHT31;63749;49.186;9.222;2023-02-08T16:07:55;3.48;48.37
75170;SHT31;63749;49.186;9.222;2023-02-08T16:10:23;3.30;48.77
75170;SHT31;63749;49.186;9.222;2023-02-08T16:12:57;3.04;50.00
75170;SHT31;63749;49.186;9.222;2023-02-08T16:15:34;3.08;50.63
75170;SHT31;63749;49.186;9.222;2023-02-08T16:17:59;2.93;50.91
75170;SHT31;63749;49.186;9.222;2023-02-08T16:20:31;2.75;52.08
75170;SHT31;63749;49.186;9.222;2023-02-08T16:23:24;2.62;52.80
75170;SHT31;63749;49.186;9.222;2023-02-08T16:25:50;2.42;52.68
75170;SHT31;63749;49.186;9.222;2023-02-08T16:28:26;2.15;53.51
75170;SHT31;63749;49.186;9.222;2023-02-08T16:30:53;2.01;54.32
75170;SHT31;63749;49.186;9.222;2023-02-08T16:33:20;1.91;55.86
75170;SHT31;63749;49.186;9.222;2023-02-08T16:35:45;1.83;55.14
75170;SHT31;63749;49.186;9.222;2023-02-08T16:38:17;1.67;55.56
75170;SHT31;63749;49.186;9.222;2023-02-08T16:40:55;1.64;56.17
75170;SHT31;63749;49.186;9.222;2023-02-08T16:43:27;1.50;56.51
75170;SHT31;63749;49.186;9.222;2023-02-08T16:46:16;1.43;56.75
75170;SHT31;63749;49.186;9.222;2023-02-08T16:48:46;1.29;57.46
75170;SHT31;63749;49.186;9.222;2023-02-08T16:51:20;1.21;57.79
75170;SHT31;63749;49.186;9.222;2023-02-08T16:53:48;1.09;58.42
75170;SHT31;63749;49.186;9.222;2023-02-08T16:56:13;1.04;59.92
75170;SHT31;63749;49.186;9.222;2023-02-08T16:58:39;1.01;59.92
75170;SHT31;63749;49.186;9.222;2023-02-08T17:01:04;1.08;58.59
75170;SHT31;63749;49.186;9.222;2023-02-08T17:03:30;0.92;59.64
75170;SHT31;63749;49.186;9.222;2023-02-08T17:05:56;0.84;59.98
75170;SHT31;63749;49.186;9.222;2023-02-08T17:08:23;0.81;59.56
75170;SHT31;63749;49.186;9.222;2023-02-08T17:10:48;0.74;59.70
75170;SHT31;63749;49.186;9.222;2023-02-08T17:13:17;0.74;59.68
75170;SHT31;63749;49.186;9.222;2023-02-08T17:15:43;0.73;59.71
75170;SHT31;63749;49.186;9.222;2023-02-08T17:18:09;0.63;60.00
75170;SHT31;63749;49.186;9.222;2023-02-08T17:20:35;0.45;59.98
75170;SHT31;63749;49.186;9.222;2023-02-08T17:23:03;0.39;60.49
75170;SHT31;63749;49.186;9.222;2023-02-08T17:25:30;0.28;61.81
75170;SHT31;63749;49.186;9.222;2023-02-08T17:28:02;0.29;61.53
75170;SHT31;63749;49.186;9.222;2023-02-08T17:30:32;0.26;61.46
75170;SHT31;63749;49.186;9.222;2023-02-08T17:32:57;0.18;62.29
75170;SHT31;63749;49.186;9.222;2023-02-08T17:35:25;0.16;62.51
75170;SHT31;63749;49.186;9.222;2023-02-08T17:37:53;0.20;62.66
75170;SHT31;63749;49.186;9.222;2023-02-08T17:40:22;0.20;62.54
75170;SHT31;63749;49.186;9.222;2023-02-08T17:42:50;0.29;62.29
75170;SHT31;63749;49.186;9.222;2023-02-08T17:45:15;0.23;62.26
75170;SHT31;63749;49.186;9.222;2023-02-08T17:47:41;0.10;62.48
75170;SHT31;63749;49.186;9.222;2023-02-08T17:50:08;0.10;62.62
75170;SHT31;63749;49.186;9.222;2023-02-08T17:52:36;0.08;62.38